Curtis, NE

7:15 AM CDT on October 01, 2014 (GMT -0500)
Imperial Municipal | Change Station
CLOSE
Current Station
Airport
Location: Imperial,
Elevation: 3274 ft
Nearby Weather Stations

Elev 3274 ft 40.51 °N, 101.62 °W | Updated 22 minutes ago

Partly Cloudy
Partly Cloudy
50 °F
Feels Like 50 °F
N
7
Wind Variable Wind from WNW

Today
High -- | Low -- °F
--% Chance of Precip.
Yesterday
High -- | Low -- °F
Precip. -- in
7:38 AM 7:24 PM
Waxing Crescent, 47% visible
Pressure 29.77 in
Visibility 10.0 miles
Clouds Clear
Dew Point 44 °F
Humidity 80%
Rainfall 0.00 in
Snow Depth Not available.
UV 0 out of 12
Pollen 4.00 out of 12
Air Quality Not available.
Flu Activity Not available.
METAR KIML 011153Z AUTO 30006KT 10SM CLR 10/07 A2981 RMK AO2 SLP081 T01000067 10144 20094 53009

More Conditions Fewer Conditions

Pressure 29.77 in
Visibility 10.0 miles
Clouds Clear
Dew Point 44 °F
Humidity 80%
Rainfall 0.00 in
Snow Depth Not available.
UV 0 out of 12
Pollen 4.00 out of 12
Air Quality Not available.
Flu Activity Not available.
METAR KIML 011153Z AUTO 30006KT 10SM CLR 10/07 A2981 RMK AO2 SLP081 T01000067 10144 20094 53009

More Conditions Fewer Conditions

10-Day Weather Forecast

Almanac

Astronomy

Oct. 01, 2014 Rise Set
Actual Time 7:38 AM CDT 7:24 PM CDT
Civil Twilight 7:11 AM CDT 7:51 PM CDT
Nautical Twilight 6:39 AM CDT 8:22 PM CDT
Astronomical Twilight 6:07 AM CDT 8:54 PM CDT
Moon 2:42 PM CDT No Moon Set
Length of Visible Light 12h 39m
Length of Day
11h 45m
Tomorrow will be 2m 39s shorter.
Waxing Crescent, 47% of the Moon is Illuminated
Today
Waxing Crescent
Oct 1
First Quarter
Oct 8
Full
Oct 15
Last Quarter
Oct 23
New

Today's Extremes

State Highs State Lows

Community

WunderPhotos

Upload Photos

1,757,914 photos uploaded!

Nearby

Snow Depth

Station Depth Elevation
No new snow has been reported.

Earthquake Activity

City Distance Mag. Time & Date
No recent earthquake activity has been reported nearby.
Minimum magnitude displayed is 2.5.

Coastal Water Temperatures

Place Temperature
No Stations Reporting

Nearby Weather Stations